sensor_id;sensor_type;location;lat;lon;timestamp;P1;durP1;ratioP1;P2;durP2;ratioP2
76202;SDS011;64985;46.364;17.008;2023-04-23T00:02:09;20.40;;;13.35;;
76202;SDS011;64985;46.364;17.008;2023-04-23T00:05:14;22.20;;;13.98;;
76202;SDS011;64985;46.364;17.008;2023-04-23T00:08:17;19.08;;;12.90;;
76202;SDS011;64985;46.364;17.008;2023-04-23T00:11:20;22.98;;;13.13;;
76202;SDS011;64985;46.364;17.008;2023-04-23T00:14:22;18.67;;;12.85;;
76202;SDS011;64985;46.364;17.008;2023-04-23T00:17:24;22.98;;;14.10;;
76202;SDS011;64985;46.364;17.008;2023-04-23T00:20:27;20.63;;;13.35;;
76202;SDS011;64985;46.364;17.008;2023-04-23T00:23:29;19.55;;;13.25;;
76202;SDS011;64985;46.364;17.008;2023-04-23T00:26:31;21.63;;;14.10;;
76202;SDS011;64985;46.364;17.008;2023-04-23T00:29:33;21.50;;;13.80;;
76202;SDS011;64985;46.364;17.008;2023-04-23T00:32:35;22.52;;;13.30;;
76202;SDS011;64985;46.364;17.008;2023-04-23T00:35:37;21.13;;;13.95;;
76202;SDS011;64985;46.364;17.008;2023-04-23T00:38:40;19.65;;;13.55;;
76202;SDS011;64985;46.364;17.008;2023-04-23T00:41:42;22.85;;;14.50;;
76202;SDS011;64985;46.364;17.008;2023-04-23T00:44:44;18.85;;;13.35;;
76202;SDS011;64985;46.364;17.008;2023-04-23T00:47:47;21.55;;;13.45;;
76202;SDS011;64985;46.364;17.008;2023-04-23T00:50:57;22.65;;;14.13;;
76202;SDS011;64985;46.364;17.008;2023-04-23T00:54:00;25.15;;;14.18;;
76202;SDS011;64985;46.364;17.008;2023-04-23T00:57:03;20.42;;;13.93;;
76202;SDS011;64985;46.364;17.008;2023-04-23T01:00:05;24.23;;;13.82;;
76202;SDS011;64985;46.364;17.008;2023-04-23T01:03:08;25.17;;;17.77;;
76202;SDS011;64985;46.364;17.008;2023-04-23T01:06:11;26.10;;;17.75;;
76202;SDS011;64985;46.364;17.008;2023-04-23T01:09:14;24.05;;;16.17;;
76202;SDS011;64985;46.364;17.008;2023-04-23T01:12:18;24.08;;;15.35;;
76202;SDS011;64985;46.364;17.008;2023-04-23T01:15:20;20.30;;;13.40;;
76202;SDS011;64985;46.364;17.008;2023-04-23T01:18:23;19.13;;;13.18;;
76202;SDS011;64985;46.364;17.008;2023-04-23T01:21:25;22.85;;;14.02;;
76202;SDS011;64985;46.364;17.008;2023-04-23T01:24:28;20.77;;;13.65;;
76202;SDS011;64985;46.364;17.008;2023-04-23T01:27:31;21.05;;;14.25;;
76202;SDS011;64985;46.364;17.008;2023-04-23T01:30:36;20.95;;;13.80;;
76202;SDS011;64985;46.364;17.008;2023-04-23T01:33:39;22.13;;;14.90;;
76202;SDS011;64985;46.364;17.008;2023-04-23T01:36:42;21.08;;;14.68;;
76202;SDS011;64985;46.364;17.008;2023-04-23T01:39:44;20.55;;;14.32;;
76202;SDS011;64985;46.364;17.008;2023-04-23T01:42:47;20.63;;;14.07;;
76202;SDS011;64985;46.364;17.008;2023-04-23T01:45:49;21.70;;;13.40;;
76202;SDS011;64985;46.364;17.008;2023-04-23T01:48:52;19.52;;;13.32;;
76202;SDS011;64985;46.364;17.008;2023-04-23T01:51:54;17.63;;;11.93;;
76202;SDS011;64985;46.364;17.008;2023-04-23T01:54:56;17.13;;;11.95;;
76202;SDS011;64985;46.364;17.008;2023-04-23T01:57:58;21.40;;;12.02;;
76202;SDS011;64985;46.364;17.008;2023-04-23T02:01:01;17.30;;;12.05;;
76202;SDS011;64985;46.364;17.008;2023-04-23T02:04:03;17.73;;;12.02;;
76202;SDS011;64985;46.364;17.008;2023-04-23T02:07:06;16.85;;;12.05;;
76202;SDS011;64985;46.364;17.008;2023-04-23T02:10:08;17.98;;;12.38;;
76202;SDS011;64985;46.364;17.008;2023-04-23T02:13:11;16.65;;;11.65;;
76202;SDS011;64985;46.364;17.008;2023-04-23T02:16:13;22.50;;;12.30;;
76202;SDS011;64985;46.364;17.008;2023-04-23T02:19:15;18.08;;;12.88;;
76202;SDS011;64985;46.364;17.008;2023-04-23T02:22:17;18.05;;;12.10;;
76202;SDS011;64985;46.364;17.008;2023-04-23T02:25:20;17.40;;;11.60;;
76202;SDS011;64985;46.364;17.008;2023-04-23T02:28:22;20.33;;;13.25;;
76202;SDS011;64985;46.364;17.008;2023-04-23T02:31:24;20.45;;;13.77;;
76202;SDS011;64985;46.364;17.008;2023-04-23T02:34:26;20.83;;;12.95;;
76202;SDS011;64985;46.364;17.008;2023-04-23T02:37:29;19.42;;;12.68;;
76202;SDS011;64985;46.364;17.008;2023-04-23T02:40:31;18.23;;;12.18;;
76202;SDS011;64985;46.364;17.008;2023-04-23T02:43:33;15.25;;;11.35;;
76202;SDS011;64985;46.364;17.008;2023-04-23T02:46:35;16.15;;;11.10;;
76202;SDS011;64985;46.364;17.008;2023-04-23T02:49:39;13.75;;;10.30;;
76202;SDS011;64985;46.364;17.008;2023-04-23T02:52:41;17.15;;;11.45;;
76202;SDS011;64985;46.364;17.008;2023-04-23T02:55:43;17.55;;;11.95;;
76202;SDS011;64985;46.364;17.008;2023-04-23T02:58:45;20.40;;;12.43;;
76202;SDS011;64985;46.364;17.008;2023-04-23T03:01:47;15.98;;;12.02;;
76202;SDS011;64985;46.364;17.008;2023-04-23T03:04:49;20.50;;;13.02;;
76202;SDS011;64985;46.364;17.008;2023-04-23T03:07:52;17.60;;;12.00;;
76202;SDS011;64985;46.364;17.008;2023-04-23T03:10:54;17.77;;;11.88;;
76202;SDS011;64985;46.364;17.008;2023-04-23T03:13:56;18.40;;;11.65;;
76202;SDS011;64985;46.364;17.008;2023-04-23T03:16:58;17.00;;;11.55;;
76202;SDS011;64985;46.364;17.008;2023-04-23T03:20:00;16.83;;;11.93;;
76202;SDS011;64985;46.364;17.008;2023-04-23T03:23:03;20.10;;;12.35;;
76202;SDS011;64985;46.364;17.008;2023-04-23T03:26:06;19.02;;;12.93;;
76202;SDS011;64985;46.364;17.008;2023-04-23T03:29:09;19.60;;;12.15;;
76202;SDS011;64985;46.364;17.008;2023-04-23T03:32:11;17.38;;;11.13;;
76202;SDS011;64985;46.364;17.008;2023-04-23T03:35:13;22.58;;;12.57;;
76202;SDS011;64985;46.364;17.008;2023-04-23T03:38:15;17.83;;;12.27;;
76202;SDS011;64985;46.364;17.008;2023-04-23T03:41:17;19.77;;;13.40;;
76202;SDS011;64985;46.364;17.008;2023-04-23T03:44:19;20.58;;;13.52;;
76202;SDS011;64985;46.364;17.008;2023-04-23T03:47:21;18.38;;;13.45;;
76202;SDS011;64985;46.364;17.008;2023-04-23T03:50:24;20.23;;;13.90;;
76202;SDS011;64985;46.364;17.008;2023-04-23T03:53:26;23.73;;;15.23;;
76202;SDS011;64985;46.364;17.008;2023-04-23T03:56:28;20.13;;;13.90;;
76202;SDS011;64985;46.364;17.008;2023-04-23T03:59:30;21.98;;;13.80;;
76202;SDS011;64985;46.364;17.008;2023-04-23T04:02:33;20.83;;;14.10;;
76202;SDS011;64985;46.364;17.008;2023-04-23T04:05:35;23.40;;;14.15;;
76202;SDS011;64985;46.364;17.008;2023-04-23T04:08:37;24.67;;;14.23;;
76202;SDS011;64985;46.364;17.008;2023-04-23T04:11:39;21.08;;;14.30;;
76202;SDS011;64985;46.364;17.008;2023-04-23T04:14:41;21.02;;;13.80;;
76202;SDS011;64985;46.364;17.008;2023-04-23T04:17:44;22.23;;;14.55;;
76202;SDS011;64985;46.364;17.008;2023-04-23T04:20:46;21.67;;;13.82;;
76202;SDS011;64985;46.364;17.008;2023-04-23T04:23:49;21.92;;;14.88;;
76202;SDS011;64985;46.364;17.008;2023-04-23T04:26:51;24.35;;;14.75;;
76202;SDS011;64985;46.364;17.008;2023-04-23T04:29:54;21.17;;;14.05;;
76202;SDS011;64985;46.364;17.008;2023-04-23T04:32:56;21.40;;;14.10;;
76202;SDS011;64985;46.364;17.008;2023-04-23T04:35:59;21.95;;;14.07;;
76202;SDS011;64985;46.364;17.008;2023-04-23T04:39:02;22.67;;;14.70;;
76202;SDS011;64985;46.364;17.008;2023-04-23T04:42:05;22.65;;;14.50;;
76202;SDS011;64985;46.364;17.008;2023-04-23T04:45:07;21.75;;;14.68;;
76202;SDS011;64985;46.364;17.008;2023-04-23T04:48:10;23.08;;;14.38;;
76202;SDS011;64985;46.364;17.008;2023-04-23T04:51:13;25.88;;;14.40;;
76202;SDS011;64985;46.364;17.008;2023-04-23T04:54:15;21.08;;;13.20;;
76202;SDS011;64985;46.364;17.008;2023-04-23T04:57:17;22.70;;;14.60;;
76202;SDS011;64985;46.364;17.008;2023-04-23T05:00:23;23.50;;;14.68;;
76202;SDS011;64985;46.364;17.008;2023-04-23T05:03:29;22.05;;;14.25;;
76202;SDS011;64985;46.364;17.008;2023-04-23T05:06:32;30.55;;;15.13;;
76202;SDS011;64985;46.364;17.008;2023-04-23T05:09:35;22.23;;;14.65;;
76202;SDS011;64985;46.364;17.008;2023-04-23T05:12:37;19.50;;;12.80;;
76202;SDS011;64985;46.364;17.008;2023-04-23T05:15:42;21.90;;;13.07;;
76202;SDS011;64985;46.364;17.008;2023-04-23T05:18:44;20.13;;;13.05;;
76202;SDS011;64985;46.364;17.008;2023-04-23T05:21:47;18.95;;;12.43;;
76202;SDS011;64985;46.364;17.008;2023-04-23T05:24:49;23.08;;;12.35;;
76202;SDS011;64985;46.364;17.008;2023-04-23T05:27:51;21.55;;;12.50;;
76202;SDS011;64985;46.364;17.008;2023-04-23T05:30:54;18.10;;;11.98;;
76202;SDS011;64985;46.364;17.008;2023-04-23T05:33:56;23.55;;;13.13;;
76202;SDS011;64985;46.364;17.008;2023-04-23T05:36:59;18.63;;;12.90;;
76202;SDS011;64985;46.364;17.008;2023-04-23T05:40:02;19.63;;;12.75;;
76202;SDS011;64985;46.364;17.008;2023-04-23T05:43:07;20.25;;;12.60;;
76202;SDS011;64985;46.364;17.008;2023-04-23T05:46:09;19.70;;;12.88;;
76202;SDS011;64985;46.364;17.008;2023-04-23T05:49:11;18.48;;;11.90;;
76202;SDS011;64985;46.364;17.008;2023-04-23T05:52:13;19.65;;;12.93;;
76202;SDS011;64985;46.364;17.008;2023-04-23T05:55:16;16.40;;;11.43;;
76202;SDS011;64985;46.364;17.008;2023-04-23T05:58:19;20.35;;;10.85;;
76202;SDS011;64985;46.364;17.008;2023-04-23T06:01:21;19.40;;;11.40;;
76202;SDS011;64985;46.364;17.008;2023-04-23T06:04:24;15.63;;;11.20;;
76202;SDS011;64985;46.364;17.008;2023-04-23T06:07:26;15.32;;;10.80;;
76202;SDS011;64985;46.364;17.008;2023-04-23T06:10:28;19.02;;;10.52;;
76202;SDS011;64985;46.364;17.008;2023-04-23T06:13:30;14.07;;;10.60;;
76202;SDS011;64985;46.364;17.008;2023-04-23T06:16:33;15.93;;;11.18;;
76202;SDS011;64985;46.364;17.008;2023-04-23T06:19:35;16.58;;;10.80;;
76202;SDS011;64985;46.364;17.008;2023-04-23T06:22:37;16.85;;;10.90;;
76202;SDS011;64985;46.364;17.008;2023-04-23T06:25:39;18.92;;;10.82;;
76202;SDS011;64985;46.364;17.008;2023-04-23T06:28:42;17.08;;;10.30;;
76202;SDS011;64985;46.364;17.008;2023-04-23T06:31:46;13.38;;;9.88;;
76202;SDS011;64985;46.364;17.008;2023-04-23T06:34:48;13.75;;;9.45;;
76202;SDS011;64985;46.364;17.008;2023-04-23T06:38:02;11.52;;;8.93;;
76202;SDS011;64985;46.364;17.008;2023-04-23T06:41:04;13.30;;;9.00;;
76202;SDS011;64985;46.364;17.008;2023-04-23T06:44:07;18.88;;;9.00;;
76202;SDS011;64985;46.364;17.008;2023-04-23T06:47:09;14.15;;;8.77;;
76202;SDS011;64985;46.364;17.008;2023-04-23T06:50:12;12.93;;;9.45;;
76202;SDS011;64985;46.364;17.008;2023-04-23T06:53:14;11.57;;;8.15;;
76202;SDS011;64985;46.364;17.008;2023-04-23T06:56:16;15.70;;;8.90;;
76202;SDS011;64985;46.364;17.008;2023-04-23T06:59:18;11.98;;;8.52;;
76202;SDS011;64985;46.364;17.008;2023-04-23T07:02:21;16.25;;;8.48;;
76202;SDS011;64985;46.364;17.008;2023-04-23T07:05:23;12.13;;;7.63;;
76202;SDS011;64985;46.364;17.008;2023-04-23T07:08:25;14.25;;;7.82;;
76202;SDS011;64985;46.364;17.008;2023-04-23T07:11:27;10.00;;;7.88;;
76202;SDS011;64985;46.364;17.008;2023-04-23T07:14:31;10.30;;;7.32;;
76202;SDS011;64985;46.364;17.008;2023-04-23T07:17:33;9.48;;;6.82;;
76202;SDS011;64985;46.364;17.008;2023-04-23T07:20:36;12.88;;;7.10;;
76202;SDS011;64985;46.364;17.008;2023-04-23T07:23:39;10.70;;;7.57;;
76202;SDS011;64985;46.364;17.008;2023-04-23T07:26:41;11.57;;;7.60;;
76202;SDS011;64985;46.364;17.008;2023-04-23T07:29:45;12.25;;;7.75;;
76202;SDS011;64985;46.364;17.008;2023-04-23T07:32:47;14.73;;;7.10;;
76202;SDS011;64985;46.364;17.008;2023-04-23T07:35:49;11.57;;;6.95;;
76202;SDS011;64985;46.364;17.008;2023-04-23T07:38:52;9.63;;;6.22;;
76202;SDS011;64985;46.364;17.008;2023-04-23T07:41:54;12.60;;;6.65;;
76202;SDS011;64985;46.364;17.008;2023-04-23T07:44:57;9.15;;;6.80;;
76202;SDS011;64985;46.364;17.008;2023-04-23T07:47:59;10.25;;;5.68;;
76202;SDS011;64985;46.364;17.008;2023-04-23T07:51:02;7.68;;;6.00;;
76202;SDS011;64985;46.364;17.008;2023-04-23T07:54:05;10.93;;;5.45;;
76202;SDS011;64985;46.364;17.008;2023-04-23T07:57:07;10.48;;;5.80;;
76202;SDS011;64985;46.364;17.008;2023-04-23T08:00:09;12.60;;;5.78;;
76202;SDS011;64985;46.364;17.008;2023-04-23T08:03:12;7.13;;;5.50;;
76202;SDS011;64985;46.364;17.008;2023-04-23T08:06:15;7.90;;;5.57;;
76202;SDS011;64985;46.364;17.008;2023-04-23T08:09:18;9.30;;;5.70;;
76202;SDS011;64985;46.364;17.008;2023-04-23T08:12:20;8.55;;;5.68;;
76202;SDS011;64985;46.364;17.008;2023-04-23T08:15:22;9.15;;;6.05;;
76202;SDS011;64985;46.364;17.008;2023-04-23T08:18:25;7.88;;;5.78;;
76202;SDS011;64985;46.364;17.008;2023-04-23T08:21:27;10.38;;;6.25;;
76202;SDS011;64985;46.364;17.008;2023-04-23T08:24:29;8.95;;;6.20;;
76202;SDS011;64985;46.364;17.008;2023-04-23T08:27:31;10.25;;;6.95;;
76202;SDS011;64985;46.364;17.008;2023-04-23T08:30:34;11.85;;;7.22;;
76202;SDS011;64985;46.364;17.008;2023-04-23T08:33:36;11.55;;;7.78;;
76202;SDS011;64985;46.364;17.008;2023-04-23T08:36:38;13.10;;;8.30;;
76202;SDS011;64985;46.364;17.008;2023-04-23T08:39:40;12.00;;;7.90;;
76202;SDS011;64985;46.364;17.008;2023-04-23T08:45:58;10.38;;;6.68;;
76202;SDS011;64985;46.364;17.008;2023-04-23T08:49:04;8.45;;;6.70;;
76202;SDS011;64985;46.364;17.008;2023-04-23T08:52:16;10.20;;;7.20;;
76202;SDS011;64985;46.364;17.008;2023-04-23T08:55:24;11.70;;;7.60;;
76202;SDS011;64985;46.364;17.008;2023-04-23T08:58:26;10.73;;;7.05;;
76202;SDS011;64985;46.364;17.008;2023-04-23T09:01:29;9.60;;;5.93;;
76202;SDS011;64985;46.364;17.008;2023-04-23T09:04:32;11.02;;;5.75;;
76202;SDS011;64985;46.364;17.008;2023-04-23T09:07:35;10.02;;;5.68;;
76202;SDS011;64985;46.364;17.008;2023-04-23T09:10:39;9.35;;;5.93;;
76202;SDS011;64985;46.364;17.008;2023-04-23T09:13:44;9.40;;;5.43;;
76202;SDS011;64985;46.364;17.008;2023-04-23T09:16:46;9.30;;;5.50;;
76202;SDS011;64985;46.364;17.008;2023-04-23T09:19:49;8.25;;;5.18;;
76202;SDS011;64985;46.364;17.008;2023-04-23T09:22:52;10.50;;;5.10;;
76202;SDS011;64985;46.364;17.008;2023-04-23T09:25:55;7.25;;;5.13;;
76202;SDS011;64985;46.364;17.008;2023-04-23T09:28:57;8.43;;;5.20;;
76202;SDS011;64985;46.364;17.008;2023-04-23T09:32:06;9.55;;;4.85;;
76202;SDS011;64985;46.364;17.008;2023-04-23T09:35:12;7.55;;;4.68;;
76202;SDS011;64985;46.364;17.008;2023-04-23T09:38:15;8.65;;;5.05;;
76202;SDS011;64985;46.364;17.008;2023-04-23T09:44:29;8.35;;;4.90;;
76202;SDS011;64985;46.364;17.008;2023-04-23T09:47:40;8.50;;;4.90;;
76202;SDS011;64985;46.364;17.008;2023-04-23T09:50:48;7.47;;;4.75;;
76202;SDS011;64985;46.364;17.008;2023-04-23T09:53:50;11.13;;;4.90;;
76202;SDS011;64985;46.364;17.008;2023-04-23T09:56:53;6.93;;;4.60;;
76202;SDS011;64985;46.364;17.008;2023-04-23T09:59:58;7.40;;;5.00;;
76202;SDS011;64985;46.364;17.008;2023-04-23T10:03:14;7.85;;;4.95;;
76202;SDS011;64985;46.364;17.008;2023-04-23T10:06:16;11.32;;;4.88;;
76202;SDS011;64985;46.364;17.008;2023-04-23T10:09:39;10.27;;;4.72;;
76202;SDS011;64985;46.364;17.008;2023-04-23T10:12:43;6.28;;;4.90;;
76202;SDS011;64985;46.364;17.008;2023-04-23T10:15:55;9.65;;;5.38;;
76202;SDS011;64985;46.364;17.008;2023-04-23T10:19:15;12.30;;;5.22;;
76202;SDS011;64985;46.364;17.008;2023-04-23T10:22:20;9.20;;;4.65;;
76202;SDS011;64985;46.364;17.008;2023-04-23T10:25:23;5.47;;;4.72;;
76202;SDS011;64985;46.364;17.008;2023-04-23T10:28:26;6.63;;;4.43;;
76202;SDS011;64985;46.364;17.008;2023-04-23T10:31:32;8.20;;;4.80;;
76202;SDS011;64985;46.364;17.008;2023-04-23T10:34:36;12.65;;;4.65;;
76202;SDS011;64985;46.364;17.008;2023-04-23T10:37:41;7.43;;;4.80;;
76202;SDS011;64985;46.364;17.008;2023-04-23T10:40:45;11.55;;;4.72;;
76202;SDS011;64985;46.364;17.008;2023-04-23T10:43:52;8.35;;;4.57;;
76202;SDS011;64985;46.364;17.008;2023-04-23T10:46:55;8.05;;;4.63;;
76202;SDS011;64985;46.364;17.008;2023-04-23T10:49:59;9.27;;;4.45;;
76202;SDS011;64985;46.364;17.008;2023-04-23T10:53:19;11.05;;;4.90;;
76202;SDS011;64985;46.364;17.008;2023-04-23T10:56:22;7.88;;;4.40;;
76202;SDS011;64985;46.364;17.008;2023-04-23T10:59:24;7.43;;;4.22;;
76202;SDS011;64985;46.364;17.008;2023-04-23T11:02:27;8.68;;;4.60;;
76202;SDS011;64985;46.364;17.008;2023-04-23T11:05:44;7.43;;;4.40;;
76202;SDS011;64985;46.364;17.008;2023-04-23T11:08:52;7.90;;;4.45;;
76202;SDS011;64985;46.364;17.008;2023-04-23T11:11:58;5.65;;;4.38;;
76202;SDS011;64985;46.364;17.008;2023-04-23T11:15:12;6.18;;;4.32;;
76202;SDS011;64985;46.364;17.008;2023-04-23T11:18:15;9.63;;;4.57;;
76202;SDS011;64985;46.364;17.008;2023-04-23T11:21:17;6.53;;;4.30;;
76202;SDS011;64985;46.364;17.008;2023-04-23T11:24:21;8.23;;;4.60;;
76202;SDS011;64985;46.364;17.008;2023-04-23T11:27:24;8.90;;;4.40;;
76202;SDS011;64985;46.364;17.008;2023-04-23T11:30:27;8.48;;;4.65;;
76202;SDS011;64985;46.364;17.008;2023-04-23T11:33:30;8.52;;;4.50;;
76202;SDS011;64985;46.364;17.008;2023-04-23T11:36:33;6.78;;;4.32;;
76202;SDS011;64985;46.364;17.008;2023-04-23T11:39:40;6.90;;;4.30;;
76202;SDS011;64985;46.364;17.008;2023-04-23T11:42:46;8.68;;;4.28;;
76202;SDS011;64985;46.364;17.008;2023-04-23T11:45:48;7.65;;;4.63;;
76202;SDS011;64985;46.364;17.008;2023-04-23T11:48:50;21.08;;;6.15;;
76202;SDS011;64985;46.364;17.008;2023-04-23T11:51:53;6.63;;;4.32;;
76202;SDS011;64985;46.364;17.008;2023-04-23T11:54:55;14.55;;;5.30;;
76202;SDS011;64985;46.364;17.008;2023-04-23T11:57:57;7.25;;;4.70;;
76202;SDS011;64985;46.364;17.008;2023-04-23T12:01:00;13.35;;;4.65;;
76202;SDS011;64985;46.364;17.008;2023-04-23T12:04:09;9.00;;;5.28;;
76202;SDS011;64985;46.364;17.008;2023-04-23T12:07:14;9.88;;;5.05;;
76202;SDS011;64985;46.364;17.008;2023-04-23T12:10:27;16.30;;;5.07;;
76202;SDS011;64985;46.364;17.008;2023-04-23T12:13:29;8.82;;;4.45;;
76202;SDS011;64985;46.364;17.008;2023-04-23T12:16:38;10.38;;;4.57;;
76202;SDS011;64985;46.364;17.008;2023-04-23T12:19:44;7.15;;;4.25;;
76202;SDS011;64985;46.364;17.008;2023-04-23T12:22:47;8.57;;;3.60;;
76202;SDS011;64985;46.364;17.008;2023-04-23T12:25:49;10.63;;;4.10;;
76202;SDS011;64985;46.364;17.008;2023-04-23T12:28:55;8.35;;;4.80;;
76202;SDS011;64985;46.364;17.008;2023-04-23T12:32:00;8.90;;;4.25;;
76202;SDS011;64985;46.364;17.008;2023-04-23T12:35:03;6.45;;;4.22;;
76202;SDS011;64985;46.364;17.008;2023-04-23T12:38:24;10.68;;;5.85;;
76202;SDS011;64985;46.364;17.008;2023-04-23T12:41:27;7.28;;;3.67;;
76202;SDS011;64985;46.364;17.008;2023-04-23T12:44:31;7.32;;;3.80;;
76202;SDS011;64985;46.364;17.008;2023-04-23T12:50:43;4.97;;;3.55;;
76202;SDS011;64985;46.364;17.008;2023-04-23T12:53:46;7.32;;;3.55;;
76202;SDS011;64985;46.364;17.008;2023-04-23T12:56:48;5.72;;;3.80;;
76202;SDS011;64985;46.364;17.008;2023-04-23T12:59:51;5.28;;;3.30;;
76202;SDS011;64985;46.364;17.008;2023-04-23T13:02:55;9.20;;;4.18;;
76202;SDS011;64985;46.364;17.008;2023-04-23T13:05:57;7.75;;;3.92;;
76202;SDS011;64985;46.364;17.008;2023-04-23T13:08:59;13.23;;;5.50;;
76202;SDS011;64985;46.364;17.008;2023-04-23T13:12:05;22.65;;;8.32;;
76202;SDS011;64985;46.364;17.008;2023-04-23T13:15:07;9.10;;;4.78;;
76202;SDS011;64985;46.364;17.008;2023-04-23T13:18:10;11.63;;;4.25;;
76202;SDS011;64985;46.364;17.008;2023-04-23T13:21:12;24.27;;;6.35;;
76202;SDS011;64985;46.364;17.008;2023-04-23T13:24:15;8.63;;;4.30;;
76202;SDS011;64985;46.364;17.008;2023-04-23T13:27:17;6.95;;;4.35;;
76202;SDS011;64985;46.364;17.008;2023-04-23T13:30:19;9.57;;;5.35;;
76202;SDS011;64985;46.364;17.008;2023-04-23T13:33:21;5.57;;;4.25;;
76202;SDS011;64985;46.364;17.008;2023-04-23T13:36:23;8.35;;;4.40;;
76202;SDS011;64985;46.364;17.008;2023-04-23T13:39:26;12.45;;;4.88;;
76202;SDS011;64985;46.364;17.008;2023-04-23T13:42:28;8.55;;;4.55;;
76202;SDS011;64985;46.364;17.008;2023-04-23T13:45:31;22.73;;;6.90;;
76202;SDS011;64985;46.364;17.008;2023-04-23T13:48:33;53.03;;;11.55;;
76202;SDS011;64985;46.364;17.008;2023-04-23T13:51:35;63.65;;;13.82;;
76202;SDS011;64985;46.364;17.008;2023-04-23T13:54:37;6.40;;;4.30;;
76202;SDS011;64985;46.364;17.008;2023-04-23T13:57:40;30.45;;;9.90;;
76202;SDS011;64985;46.364;17.008;2023-04-23T14:00:42;15.65;;;6.22;;
76202;SDS011;64985;46.364;17.008;2023-04-23T14:03:45;13.93;;;4.97;;
76202;SDS011;64985;46.364;17.008;2023-04-23T14:06:48;6.53;;;4.47;;
76202;SDS011;64985;46.364;17.008;2023-04-23T14:09:51;8.05;;;4.63;;
76202;SDS011;64985;46.364;17.008;2023-04-23T14:12:54;10.25;;;4.63;;
76202;SDS011;64985;46.364;17.008;2023-04-23T14:15:56;6.78;;;4.05;;
76202;SDS011;64985;46.364;17.008;2023-04-23T14:19:00;7.95;;;4.07;;
76202;SDS011;64985;46.364;17.008;2023-04-23T14:22:02;7.43;;;4.00;;
76202;SDS011;64985;46.364;17.008;2023-04-23T14:25:08;8.43;;;4.38;;
76202;SDS011;64985;46.364;17.008;2023-04-23T14:29:01;7.97;;;3.90;;
76202;SDS011;64985;46.364;17.008;2023-04-23T14:31:41;5.75;;;3.50;;
76202;SDS011;64985;46.364;17.008;2023-04-23T14:34:44;5.93;;;3.40;;
76202;SDS011;64985;46.364;17.008;2023-04-23T14:37:46;5.30;;;3.40;;
76202;SDS011;64985;46.364;17.008;2023-04-23T14:40:48;5.90;;;3.05;;
76202;SDS011;64985;46.364;17.008;2023-04-23T14:43:51;4.72;;;3.28;;
76202;SDS011;64985;46.364;17.008;2023-04-23T14:46:53;3.35;;;3.00;;
76202;SDS011;64985;46.364;17.008;2023-04-23T14:49:55;4.55;;;3.00;;
76202;SDS011;64985;46.364;17.008;2023-04-23T14:52:58;5.90;;;3.30;;
76202;SDS011;64985;46.364;17.008;2023-04-23T14:56:00;7.45;;;3.00;;
76202;SDS011;64985;46.364;17.008;2023-04-23T14:59:02;3.53;;;2.80;;
76202;SDS011;64985;46.364;17.008;2023-04-23T15:02:05;4.10;;;2.63;;
76202;SDS011;64985;46.364;17.008;2023-04-23T15:05:08;3.58;;;2.45;;
76202;SDS011;64985;46.364;17.008;2023-04-23T15:08:11;3.10;;;2.30;;
76202;SDS011;64985;46.364;17.008;2023-04-23T15:11:13;3.65;;;2.50;;
76202;SDS011;64985;46.364;17.008;2023-04-23T15:14:23;10.20;;;3.13;;
76202;SDS011;64985;46.364;17.008;2023-04-23T15:17:32;3.63;;;2.67;;
76202;SDS011;64985;46.364;17.008;2023-04-23T15:20:35;4.53;;;2.47;;
76202;SDS011;64985;46.364;17.008;2023-04-23T15:23:37;3.88;;;2.70;;
76202;SDS011;64985;46.364;17.008;2023-04-23T15:26:43;5.13;;;2.70;;
76202;SDS011;64985;46.364;17.008;2023-04-23T15:29:47;3.95;;;2.53;;
76202;SDS011;64985;46.364;17.008;2023-04-23T15:32:49;6.53;;;2.90;;
76202;SDS011;64985;46.364;17.008;2023-04-23T15:35:52;3.22;;;2.47;;
76202;SDS011;64985;46.364;17.008;2023-04-23T15:38:54;2.90;;;2.42;;
76202;SDS011;64985;46.364;17.008;2023-04-23T15:41:56;3.55;;;2.72;;
76202;SDS011;64985;46.364;17.008;2023-04-23T15:44:58;3.00;;;2.60;;
76202;SDS011;64985;46.364;17.008;2023-04-23T15:48:01;5.07;;;2.80;;
76202;SDS011;64985;46.364;17.008;2023-04-23T15:51:03;3.90;;;2.60;;
76202;SDS011;64985;46.364;17.008;2023-04-23T15:54:05;4.45;;;2.70;;
76202;SDS011;64985;46.364;17.008;2023-04-23T15:57:09;4.95;;;2.92;;
76202;SDS011;64985;46.364;17.008;2023-04-23T16:00:11;5.15;;;2.80;;
76202;SDS011;64985;46.364;17.008;2023-04-23T16:03:14;4.75;;;3.05;;
76202;SDS011;64985;46.364;17.008;2023-04-23T16:06:16;5.05;;;2.88;;
76202;SDS011;64985;46.364;17.008;2023-04-23T16:09:19;6.07;;;2.70;;
76202;SDS011;64985;46.364;17.008;2023-04-23T16:12:21;4.85;;;2.58;;
76202;SDS011;64985;46.364;17.008;2023-04-23T16:15:24;3.58;;;2.90;;
76202;SDS011;64985;46.364;17.008;2023-04-23T16:18:26;4.93;;;2.75;;
76202;SDS011;64985;46.364;17.008;2023-04-23T16:21:29;6.78;;;2.88;;
76202;SDS011;64985;46.364;17.008;2023-04-23T16:24:32;6.78;;;2.95;;
76202;SDS011;64985;46.364;17.008;2023-04-23T16:27:34;4.28;;;2.85;;
76202;SDS011;64985;46.364;17.008;2023-04-23T16:30:37;6.57;;;3.03;;
76202;SDS011;64985;46.364;17.008;2023-04-23T16:33:40;3.65;;;2.80;;
76202;SDS011;64985;46.364;17.008;2023-04-23T16:36:42;4.70;;;2.72;;
76202;SDS011;64985;46.364;17.008;2023-04-23T16:39:45;3.67;;;2.58;;
76202;SDS011;64985;46.364;17.008;2023-04-23T16:42:48;3.90;;;2.70;;
76202;SDS011;64985;46.364;17.008;2023-04-23T16:45:50;7.63;;;2.90;;
76202;SDS011;64985;46.364;17.008;2023-04-23T16:48:53;4.20;;;2.78;;
76202;SDS011;64985;46.364;17.008;2023-04-23T16:51:55;5.07;;;3.08;;
76202;SDS011;64985;46.364;17.008;2023-04-23T16:54:58;4.22;;;2.78;;
76202;SDS011;64985;46.364;17.008;2023-04-23T16:58:01;4.20;;;3.10;;
76202;SDS011;64985;46.364;17.008;2023-04-23T17:01:03;4.97;;;2.90;;
76202;SDS011;64985;46.364;17.008;2023-04-23T17:04:05;4.38;;;3.00;;
76202;SDS011;64985;46.364;17.008;2023-04-23T17:07:08;4.88;;;3.08;;
76202;SDS011;64985;46.364;17.008;2023-04-23T17:10:11;4.35;;;3.30;;
76202;SDS011;64985;46.364;17.008;2023-04-23T17:13:16;5.20;;;3.10;;
76202;SDS011;64985;46.364;17.008;2023-04-23T17:16:18;7.53;;;3.47;;
76202;SDS011;64985;46.364;17.008;2023-04-23T17:19:21;4.60;;;3.60;;
76202;SDS011;64985;46.364;17.008;2023-04-23T17:22:23;6.85;;;3.03;;
76202;SDS011;64985;46.364;17.008;2023-04-23T17:25:27;3.92;;;3.30;;
76202;SDS011;64985;46.364;17.008;2023-04-23T17:28:30;5.18;;;3.38;;
76202;SDS011;64985;46.364;17.008;2023-04-23T17:31:33;4.40;;;3.45;;
76202;SDS011;64985;46.364;17.008;2023-04-23T17:34:40;5.18;;;3.88;;
76202;SDS011;64985;46.364;17.008;2023-04-23T17:37:43;5.63;;;3.30;;
76202;SDS011;64985;46.364;17.008;2023-04-23T17:40:47;5.07;;;3.80;;
76202;SDS011;64985;46.364;17.008;2023-04-23T17:43:51;5.07;;;3.70;;
76202;SDS011;64985;46.364;17.008;2023-04-23T17:46:53;5.03;;;3.58;;
76202;SDS011;64985;46.364;17.008;2023-04-23T17:49:57;5.63;;;3.58;;
76202;SDS011;64985;46.364;17.008;2023-04-23T17:53:00;6.55;;;4.20;;
76202;SDS011;64985;46.364;17.008;2023-04-23T17:56:03;4.55;;;3.70;;
76202;SDS011;64985;46.364;17.008;2023-04-23T17:59:06;6.35;;;4.07;;
76202;SDS011;64985;46.364;17.008;2023-04-23T18:02:10;4.75;;;3.90;;
76202;SDS011;64985;46.364;17.008;2023-04-23T18:05:14;6.28;;;4.28;;